sensor_id;sensor_type;location;lat;lon;timestamp;P1;durP1;ratioP1;P2;durP2;ratioP2
67049;SDS011;53955;52.442;13.284;2022-10-16T00:01:38;2.70;;;1.90;;
67049;SDS011;53955;52.442;13.284;2022-10-16T00:04:05;2.42;;;1.60;;
67049;SDS011;53955;52.442;13.284;2022-10-16T00:06:31;4.60;;;1.60;;
67049;SDS011;53955;52.442;13.284;2022-10-16T00:08:58;2.72;;;1.60;;
67049;SDS011;53955;52.442;13.284;2022-10-16T00:11:26;2.20;;;1.50;;
67049;SDS011;53955;52.442;13.284;2022-10-16T00:13:55;2.22;;;1.60;;
67049;SDS011;53955;52.442;13.284;2022-10-16T00:16:24;2.55;;;1.83;;
67049;SDS011;53955;52.442;13.284;2022-10-16T00:18:51;2.28;;;1.40;;
67049;SDS011;53955;52.442;13.284;2022-10-16T00:21:18;2.00;;;1.40;;
67049;SDS011;53955;52.442;13.284;2022-10-16T00:23:49;3.33;;;1.67;;
67049;SDS011;53955;52.442;13.284;2022-10-16T00:26:16;2.60;;;1.52;;
67049;SDS011;53955;52.442;13.284;2022-10-16T00:28:45;2.17;;;1.50;;
67049;SDS011;53955;52.442;13.284;2022-10-16T00:31:12;3.20;;;1.67;;
67049;SDS011;53955;52.442;13.284;2022-10-16T00:33:40;2.35;;;1.70;;
67049;SDS011;53955;52.442;13.284;2022-10-16T00:36:08;2.30;;;1.30;;
67049;SDS011;53955;52.442;13.284;2022-10-16T00:38:37;1.98;;;1.45;;
67049;SDS011;53955;52.442;13.284;2022-10-16T00:41:04;2.38;;;1.70;;
67049;SDS011;53955;52.442;13.284;2022-10-16T00:43:39;2.00;;;1.40;;
67049;SDS011;53955;52.442;13.284;2022-10-16T00:46:12;2.80;;;1.88;;
67049;SDS011;53955;52.442;13.284;2022-10-16T00:48:44;2.47;;;1.42;;
67049;SDS011;53955;52.442;13.284;2022-10-16T00:51:14;1.90;;;1.15;;
67049;SDS011;53955;52.442;13.284;2022-10-16T00:53:41;1.83;;;1.50;;
67049;SDS011;53955;52.442;13.284;2022-10-16T00:56:07;1.80;;;1.40;;
67049;SDS011;53955;52.442;13.284;2022-10-16T00:58:34;1.67;;;1.30;;
67049;SDS011;53955;52.442;13.284;2022-10-16T01:01:00;2.20;;;1.30;;
67049;SDS011;53955;52.442;13.284;2022-10-16T01:03:28;2.38;;;1.60;;
67049;SDS011;53955;52.442;13.284;2022-10-16T01:06:01;1.92;;;1.50;;
67049;SDS011;53955;52.442;13.284;2022-10-16T01:08:38;2.33;;;1.63;;
67049;SDS011;53955;52.442;13.284;2022-10-16T01:11:12;2.42;;;1.67;;
67049;SDS011;53955;52.442;13.284;2022-10-16T01:13:48;2.13;;;1.60;;
67049;SDS011;53955;52.442;13.284;2022-10-16T01:16:20;2.70;;;1.60;;
67049;SDS011;53955;52.442;13.284;2022-10-16T01:18:56;2.20;;;1.25;;
67049;SDS011;53955;52.442;13.284;2022-10-16T01:21:27;2.65;;;1.33;;
67049;SDS011;53955;52.442;13.284;2022-10-16T01:23:59;2.15;;;1.30;;
67049;SDS011;53955;52.442;13.284;2022-10-16T01:26:36;2.67;;;1.42;;
67049;SDS011;53955;52.442;13.284;2022-10-16T01:29:13;2.78;;;1.38;;
67049;SDS011;53955;52.442;13.284;2022-10-16T01:31:54;3.47;;;1.95;;
67049;SDS011;53955;52.442;13.284;2022-10-16T01:34:27;2.42;;;1.63;;
67049;SDS011;53955;52.442;13.284;2022-10-16T01:36:59;1.98;;;1.48;;
67049;SDS011;53955;52.442;13.284;2022-10-16T01:39:31;2.30;;;1.42;;
67049;SDS011;53955;52.442;13.284;2022-10-16T01:42:08;2.25;;;1.52;;
67049;SDS011;53955;52.442;13.284;2022-10-16T01:44:39;2.03;;;1.27;;
67049;SDS011;53955;52.442;13.284;2022-10-16T01:47:07;3.00;;;1.42;;
67049;SDS011;53955;52.442;13.284;2022-10-16T01:49:36;2.10;;;1.20;;
67049;SDS011;53955;52.442;13.284;2022-10-16T01:52:06;1.75;;;1.33;;
67049;SDS011;53955;52.442;13.284;2022-10-16T01:54:37;1.60;;;1.10;;
67049;SDS011;53955;52.442;13.284;2022-10-16T01:57:06;3.25;;;1.27;;
67049;SDS011;53955;52.442;13.284;2022-10-16T01:59:35;2.03;;;1.50;;
67049;SDS011;53955;52.442;13.284;2022-10-16T02:02:11;2.10;;;1.40;;
67049;SDS011;53955;52.442;13.284;2022-10-16T02:04:44;1.55;;;1.08;;
67049;SDS011;53955;52.442;13.284;2022-10-16T02:07:13;1.92;;;1.23;;
67049;SDS011;53955;52.442;13.284;2022-10-16T02:09:40;1.80;;;1.42;;
67049;SDS011;53955;52.442;13.284;2022-10-16T02:12:08;3.13;;;1.52;;
67049;SDS011;53955;52.442;13.284;2022-10-16T02:14:39;2.72;;;1.58;;
67049;SDS011;53955;52.442;13.284;2022-10-16T02:17:10;2.00;;;1.33;;
67049;SDS011;53955;52.442;13.284;2022-10-16T02:19:39;1.80;;;1.17;;
67049;SDS011;53955;52.442;13.284;2022-10-16T02:22:07;2.20;;;1.50;;
67049;SDS011;53955;52.442;13.284;2022-10-16T02:24:38;2.13;;;1.30;;
67049;SDS011;53955;52.442;13.284;2022-10-16T02:27:10;2.20;;;1.58;;
67049;SDS011;53955;52.442;13.284;2022-10-16T02:29:40;2.22;;;1.45;;
67049;SDS011;53955;52.442;13.284;2022-10-16T02:32:12;2.05;;;1.40;;
67049;SDS011;53955;52.442;13.284;2022-10-16T02:34:41;2.05;;;1.55;;
67049;SDS011;53955;52.442;13.284;2022-10-16T02:37:08;2.08;;;1.42;;
67049;SDS011;53955;52.442;13.284;2022-10-16T02:39:35;1.90;;;1.35;;
67049;SDS011;53955;52.442;13.284;2022-10-16T02:42:03;3.13;;;1.55;;
67049;SDS011;53955;52.442;13.284;2022-10-16T02:44:29;1.70;;;1.33;;
67049;SDS011;53955;52.442;13.284;2022-10-16T02:46:56;3.00;;;1.33;;
67049;SDS011;53955;52.442;13.284;2022-10-16T02:49:24;2.25;;;1.38;;
67049;SDS011;53955;52.442;13.284;2022-10-16T02:51:50;1.85;;;1.30;;
67049;SDS011;53955;52.442;13.284;2022-10-16T02:54:17;3.30;;;1.50;;
67049;SDS011;53955;52.442;13.284;2022-10-16T02:56:43;2.50;;;1.35;;
67049;SDS011;53955;52.442;13.284;2022-10-16T02:59:10;2.25;;;1.48;;
67049;SDS011;53955;52.442;13.284;2022-10-16T03:01:36;1.73;;;1.17;;
67049;SDS011;53955;52.442;13.284;2022-10-16T03:04:03;4.32;;;1.30;;
67049;SDS011;53955;52.442;13.284;2022-10-16T03:06:31;2.40;;;1.33;;
67049;SDS011;53955;52.442;13.284;2022-10-16T03:08:57;2.75;;;1.25;;
67049;SDS011;53955;52.442;13.284;2022-10-16T03:11:24;2.55;;;1.40;;
67049;SDS011;53955;52.442;13.284;2022-10-16T03:13:51;1.63;;;1.23;;
67049;SDS011;53955;52.442;13.284;2022-10-16T03:16:18;1.80;;;1.20;;
67049;SDS011;53955;52.442;13.284;2022-10-16T03:18:47;2.63;;;1.48;;
67049;SDS011;53955;52.442;13.284;2022-10-16T03:21:14;1.48;;;1.25;;
67049;SDS011;53955;52.442;13.284;2022-10-16T03:23:42;2.40;;;1.55;;
67049;SDS011;53955;52.442;13.284;2022-10-16T03:26:08;2.15;;;1.33;;
67049;SDS011;53955;52.442;13.284;2022-10-16T03:28:35;2.13;;;1.50;;
67049;SDS011;53955;52.442;13.284;2022-10-16T03:31:01;2.20;;;1.40;;
67049;SDS011;53955;52.442;13.284;2022-10-16T03:33:28;1.77;;;1.33;;
67049;SDS011;53955;52.442;13.284;2022-10-16T03:35:54;2.45;;;1.58;;
67049;SDS011;53955;52.442;13.284;2022-10-16T03:38:21;2.17;;;1.52;;
67049;SDS011;53955;52.442;13.284;2022-10-16T03:40:49;1.98;;;1.27;;
67049;SDS011;53955;52.442;13.284;2022-10-16T03:43:15;2.17;;;1.40;;
67049;SDS011;53955;52.442;13.284;2022-10-16T03:45:42;3.70;;;1.35;;
67049;SDS011;53955;52.442;13.284;2022-10-16T03:48:09;2.15;;;1.30;;
67049;SDS011;53955;52.442;13.284;2022-10-16T03:50:35;2.80;;;1.40;;
67049;SDS011;53955;52.442;13.284;2022-10-16T03:53:02;2.47;;;1.10;;
67049;SDS011;53955;52.442;13.284;2022-10-16T03:55:29;2.60;;;1.58;;
67049;SDS011;53955;52.442;13.284;2022-10-16T03:57:57;2.42;;;1.40;;
67049;SDS011;53955;52.442;13.284;2022-10-16T04:00:23;2.20;;;1.50;;
67049;SDS011;53955;52.442;13.284;2022-10-16T04:02:50;1.70;;;1.30;;
67049;SDS011;53955;52.442;13.284;2022-10-16T04:05:16;3.22;;;1.50;;
67049;SDS011;53955;52.442;13.284;2022-10-16T04:07:43;1.98;;;1.45;;
67049;SDS011;53955;52.442;13.284;2022-10-16T04:10:09;1.98;;;1.35;;
67049;SDS011;53955;52.442;13.284;2022-10-16T04:12:36;3.35;;;1.60;;
67049;SDS011;53955;52.442;13.284;2022-10-16T04:15:04;2.83;;;1.35;;
67049;SDS011;53955;52.442;13.284;2022-10-16T04:17:31;2.08;;;1.42;;
67049;SDS011;53955;52.442;13.284;2022-10-16T04:19:57;3.70;;;1.48;;
67049;SDS011;53955;52.442;13.284;2022-10-16T04:29:43;3.80;;;1.30;;
67049;SDS011;53955;52.442;13.284;2022-10-16T04:32:11;2.95;;;1.67;;
67049;SDS011;53955;52.442;13.284;2022-10-16T04:34:38;1.88;;;1.20;;
67049;SDS011;53955;52.442;13.284;2022-10-16T04:39:32;2.83;;;1.30;;
67049;SDS011;53955;52.442;13.284;2022-10-16T04:41:58;2.37;;;1.90;;
67049;SDS011;53955;52.442;13.284;2022-10-16T04:44:25;2.60;;;1.70;;
67049;SDS011;53955;52.442;13.284;2022-10-16T05:06:32;2.10;;;1.50;;
67049;SDS011;53955;52.442;13.284;2022-10-16T05:11:25;1.63;;;1.27;;
67049;SDS011;53955;52.442;13.284;2022-10-16T05:13:51;2.15;;;1.48;;
67049;SDS011;53955;52.442;13.284;2022-10-16T05:16:18;2.83;;;1.52;;
67049;SDS011;53955;52.442;13.284;2022-10-16T05:18:45;1.90;;;1.30;;
67049;SDS011;53955;52.442;13.284;2022-10-16T05:23:39;3.08;;;1.60;;
67049;SDS011;53955;52.442;13.284;2022-10-16T05:26:05;1.98;;;1.35;;
67049;SDS011;53955;52.442;13.284;2022-10-16T05:28:32;2.30;;;1.50;;
67049;SDS011;53955;52.442;13.284;2022-10-16T05:30:58;1.80;;;1.50;;
67049;SDS011;53955;52.442;13.284;2022-10-16T05:35:52;2.23;;;1.50;;
67049;SDS011;53955;52.442;13.284;2022-10-16T05:40:51;2.58;;;1.63;;
67049;SDS011;53955;52.442;13.284;2022-10-16T05:43:18;2.95;;;1.88;;
67049;SDS011;53955;52.442;13.284;2022-10-16T05:45:45;2.10;;;1.80;;
67049;SDS011;53955;52.442;13.284;2022-10-16T05:48:19;2.22;;;1.65;;
67049;SDS011;53955;52.442;13.284;2022-10-16T05:50:47;2.45;;;1.80;;
67049;SDS011;53955;52.442;13.284;2022-10-16T05:53:13;2.67;;;1.70;;
67049;SDS011;53955;52.442;13.284;2022-10-16T05:55:40;2.78;;;1.85;;
67049;SDS011;53955;52.442;13.284;2022-10-16T05:58:08;3.80;;;1.60;;
67049;SDS011;53955;52.442;13.284;2022-10-16T06:05:27;2.25;;;1.60;;
67049;SDS011;53955;52.442;13.284;2022-10-16T06:07:54;4.00;;;1.45;;
67049;SDS011;53955;52.442;13.284;2022-10-16T06:10:21;1.80;;;1.50;;
67049;SDS011;53955;52.442;13.284;2022-10-16T06:12:47;2.53;;;1.88;;
67049;SDS011;53955;52.442;13.284;2022-10-16T06:15:15;2.30;;;1.58;;
67049;SDS011;53955;52.442;13.284;2022-10-16T06:20:08;2.37;;;1.63;;
67049;SDS011;53955;52.442;13.284;2022-10-16T06:25:02;2.60;;;1.80;;
67049;SDS011;53955;52.442;13.284;2022-10-16T06:27:28;2.67;;;1.75;;
67049;SDS011;53955;52.442;13.284;2022-10-16T06:29:55;2.72;;;2.10;;
67049;SDS011;53955;52.442;13.284;2022-10-16T06:32:23;4.85;;;1.80;;
67049;SDS011;53955;52.442;13.284;2022-10-16T06:34:50;2.47;;;1.88;;
67049;SDS011;53955;52.442;13.284;2022-10-16T06:37:16;2.45;;;1.80;;
67049;SDS011;53955;52.442;13.284;2022-10-16T06:39:43;4.15;;;1.60;;
67049;SDS011;53955;52.442;13.284;2022-10-16T06:42:09;2.17;;;1.63;;
67049;SDS011;53955;52.442;13.284;2022-10-16T06:44:36;2.50;;;1.90;;
67049;SDS011;53955;52.442;13.284;2022-10-16T06:47:03;3.67;;;2.13;;
67049;SDS011;53955;52.442;13.284;2022-10-16T06:49:30;3.72;;;1.83;;
67049;SDS011;53955;52.442;13.284;2022-10-16T06:51:57;2.47;;;1.65;;
67049;SDS011;53955;52.442;13.284;2022-10-16T06:54:23;3.08;;;1.80;;
67049;SDS011;53955;52.442;13.284;2022-10-16T06:56:50;2.08;;;1.50;;
67049;SDS011;53955;52.442;13.284;2022-10-16T06:59:19;2.90;;;1.50;;
67049;SDS011;53955;52.442;13.284;2022-10-16T07:01:45;2.45;;;1.63;;
67049;SDS011;53955;52.442;13.284;2022-10-16T07:04:12;3.20;;;1.70;;
67049;SDS011;53955;52.442;13.284;2022-10-16T07:06:40;2.58;;;1.73;;
67049;SDS011;53955;52.442;13.284;2022-10-16T07:09:08;4.25;;;2.03;;
67049;SDS011;53955;52.442;13.284;2022-10-16T07:11:36;5.25;;;1.98;;
67049;SDS011;53955;52.442;13.284;2022-10-16T07:14:03;3.08;;;1.85;;
67049;SDS011;53955;52.442;13.284;2022-10-16T07:16:31;2.38;;;1.70;;
67049;SDS011;53955;52.442;13.284;2022-10-16T07:18:59;2.28;;;1.60;;
67049;SDS011;53955;52.442;13.284;2022-10-16T07:21:27;2.53;;;1.60;;
67049;SDS011;53955;52.442;13.284;2022-10-16T07:23:57;2.25;;;1.50;;
67049;SDS011;53955;52.442;13.284;2022-10-16T07:26:26;2.20;;;1.38;;
67049;SDS011;53955;52.442;13.284;2022-10-16T07:28:55;1.58;;;1.25;;
67049;SDS011;53955;52.442;13.284;2022-10-16T07:31:21;1.90;;;1.23;;
67049;SDS011;53955;52.442;13.284;2022-10-16T07:33:48;4.40;;;1.40;;
67049;SDS011;53955;52.442;13.284;2022-10-16T07:36:15;2.35;;;1.35;;
67049;SDS011;53955;52.442;13.284;2022-10-16T07:38:42;2.45;;;1.40;;
67049;SDS011;53955;52.442;13.284;2022-10-16T07:41:12;2.42;;;1.20;;
67049;SDS011;53955;52.442;13.284;2022-10-16T07:43:40;2.45;;;1.50;;
67049;SDS011;53955;52.442;13.284;2022-10-16T07:46:11;2.17;;;1.35;;
67049;SDS011;53955;52.442;13.284;2022-10-16T07:48:37;2.10;;;1.40;;
67049;SDS011;53955;52.442;13.284;2022-10-16T07:51:04;1.90;;;1.35;;
67049;SDS011;53955;52.442;13.284;2022-10-16T07:53:32;2.22;;;1.60;;
67049;SDS011;53955;52.442;13.284;2022-10-16T07:55:59;2.13;;;1.42;;
67049;SDS011;53955;52.442;13.284;2022-10-16T08:10:41;2.20;;;1.30;;
67049;SDS011;53955;52.442;13.284;2022-10-16T08:13:08;2.03;;;1.05;;
67049;SDS011;53955;52.442;13.284;2022-10-16T08:15:36;1.20;;;0.90;;
67049;SDS011;53955;52.442;13.284;2022-10-16T08:18:03;1.43;;;0.90;;
67049;SDS011;53955;52.442;13.284;2022-10-16T08:20:31;1.48;;;1.02;;
67049;SDS011;53955;52.442;13.284;2022-10-16T08:22:58;1.52;;;1.05;;
67049;SDS011;53955;52.442;13.284;2022-10-16T08:25:25;1.83;;;1.20;;
67049;SDS011;53955;52.442;13.284;2022-10-16T08:27:52;3.50;;;1.20;;
67049;SDS011;53955;52.442;13.284;2022-10-16T08:30:20;1.88;;;1.00;;
67049;SDS011;53955;52.442;13.284;2022-10-16T08:32:49;2.58;;;1.40;;
67049;SDS011;53955;52.442;13.284;2022-10-16T08:35:16;1.40;;;1.02;;
67049;SDS011;53955;52.442;13.284;2022-10-16T08:37:42;1.60;;;1.30;;
67049;SDS011;53955;52.442;13.284;2022-10-16T08:40:15;2.58;;;1.83;;
67049;SDS011;53955;52.442;13.284;2022-10-16T08:42:52;2.97;;;1.25;;
67049;SDS011;53955;52.442;13.284;2022-10-16T08:45:32;1.42;;;1.02;;
67049;SDS011;53955;52.442;13.284;2022-10-16T08:48:15;2.53;;;1.30;;
67049;SDS011;53955;52.442;13.284;2022-10-16T08:50:46;2.33;;;1.30;;
67049;SDS011;53955;52.442;13.284;2022-10-16T08:53:14;2.42;;;1.45;;
67049;SDS011;53955;52.442;13.284;2022-10-16T08:55:45;2.28;;;1.48;;
67049;SDS011;53955;52.442;13.284;2022-10-16T08:58:16;2.10;;;1.25;;
67049;SDS011;53955;52.442;13.284;2022-10-16T09:00:48;2.03;;;1.20;;
67049;SDS011;53955;52.442;13.284;2022-10-16T09:03:32;1.45;;;0.98;;
67049;SDS011;53955;52.442;13.284;2022-10-16T09:06:11;3.80;;;1.10;;
67049;SDS011;53955;52.442;13.284;2022-10-16T09:09:14;3.17;;;1.00;;
67049;SDS011;53955;52.442;13.284;2022-10-16T09:11:58;3.20;;;1.10;;
67049;SDS011;53955;52.442;13.284;2022-10-16T09:14:40;2.05;;;0.98;;
67049;SDS011;53955;52.442;13.284;2022-10-16T09:17:37;1.73;;;0.93;;
67049;SDS011;53955;52.442;13.284;2022-10-16T09:20:16;3.65;;;0.98;;
67049;SDS011;53955;52.442;13.284;2022-10-16T09:23:14;1.38;;;1.20;;
67049;SDS011;53955;52.442;13.284;2022-10-16T09:26:01;3.10;;;1.20;;
67049;SDS011;53955;52.442;13.284;2022-10-16T09:28:43;1.80;;;1.10;;
67049;SDS011;53955;52.442;13.284;2022-10-16T09:34:02;2.05;;;1.25;;
67049;SDS011;53955;52.442;13.284;2022-10-16T09:36:45;2.00;;;0.73;;
67049;SDS011;53955;52.442;13.284;2022-10-16T09:39:17;1.30;;;1.00;;
67049;SDS011;53955;52.442;13.284;2022-10-16T09:41:47;2.25;;;1.30;;
67049;SDS011;53955;52.442;13.284;2022-10-16T09:44:23;2.05;;;1.30;;
67049;SDS011;53955;52.442;13.284;2022-10-16T09:47:05;3.05;;;0.93;;
67049;SDS011;53955;52.442;13.284;2022-10-16T09:49:51;1.52;;;0.90;;
67049;SDS011;53955;52.442;13.284;2022-10-16T09:52:20;1.67;;;1.05;;
67049;SDS011;53955;52.442;13.284;2022-10-16T09:54:51;2.45;;;1.30;;
67049;SDS011;53955;52.442;13.284;2022-10-16T09:57:19;1.70;;;1.10;;
67049;SDS011;53955;52.442;13.284;2022-10-16T09:59:47;3.03;;;1.17;;
67049;SDS011;53955;52.442;13.284;2022-10-16T10:02:15;1.75;;;1.00;;
67049;SDS011;53955;52.442;13.284;2022-10-16T10:04:45;2.28;;;1.00;;
67049;SDS011;53955;52.442;13.284;2022-10-16T10:07:17;1.42;;;0.90;;
67049;SDS011;53955;52.442;13.284;2022-10-16T10:09:47;1.13;;;0.88;;
67049;SDS011;53955;52.442;13.284;2022-10-16T10:12:16;1.50;;;1.13;;
67049;SDS011;53955;52.442;13.284;2022-10-16T10:14:46;2.05;;;0.90;;
67049;SDS011;53955;52.442;13.284;2022-10-16T10:17:16;1.65;;;1.00;;
67049;SDS011;53955;52.442;13.284;2022-10-16T10:19:48;1.08;;;0.95;;
67049;SDS011;53955;52.442;13.284;2022-10-16T10:22:17;3.30;;;0.80;;
67049;SDS011;53955;52.442;13.284;2022-10-16T10:24:54;1.92;;;0.90;;
67049;SDS011;53955;52.442;13.284;2022-10-16T10:27:29;1.20;;;0.88;;
67049;SDS011;53955;52.442;13.284;2022-10-16T10:30:03;1.27;;;0.80;;
67049;SDS011;53955;52.442;13.284;2022-10-16T10:32:37;2.05;;;1.35;;
67049;SDS011;53955;52.442;13.284;2022-10-16T10:35:14;2.65;;;1.30;;
67049;SDS011;53955;52.442;13.284;2022-10-16T10:37:48;1.45;;;0.95;;
67049;SDS011;53955;52.442;13.284;2022-10-16T10:40:30;1.80;;;1.00;;
67049;SDS011;53955;52.442;13.284;2022-10-16T10:43:08;1.00;;;0.80;;
67049;SDS011;53955;52.442;13.284;2022-10-16T10:45:46;1.53;;;1.10;;
67049;SDS011;53955;52.442;13.284;2022-10-16T10:48:21;1.90;;;0.70;;
67049;SDS011;53955;52.442;13.284;2022-10-16T10:51:01;1.35;;;0.93;;
67049;SDS011;53955;52.442;13.284;2022-10-16T10:53:35;4.28;;;1.20;;
67049;SDS011;53955;52.442;13.284;2022-10-16T10:56:14;1.45;;;1.08;;
67049;SDS011;53955;52.442;13.284;2022-10-16T10:58:56;3.13;;;0.98;;
67049;SDS011;53955;52.442;13.284;2022-10-16T11:01:52;0.80;;;0.70;;
67049;SDS011;53955;52.442;13.284;2022-10-16T11:07:36;1.10;;;0.85;;
67049;SDS011;53955;52.442;13.284;2022-10-16T11:10:14;1.30;;;1.00;;
67049;SDS011;53955;52.442;13.284;2022-10-16T11:12:45;1.60;;;0.88;;
67049;SDS011;53955;52.442;13.284;2022-10-16T11:15:15;1.45;;;1.00;;
67049;SDS011;53955;52.442;13.284;2022-10-16T11:17:48;1.92;;;1.05;;
67049;SDS011;53955;52.442;13.284;2022-10-16T11:20:20;1.08;;;0.70;;
67049;SDS011;53955;52.442;13.284;2022-10-16T11:22:52;1.17;;;0.65;;
67049;SDS011;53955;52.442;13.284;2022-10-16T11:25:23;1.35;;;1.05;;
67049;SDS011;53955;52.442;13.284;2022-10-16T11:27:57;1.58;;;1.00;;
67049;SDS011;53955;52.442;13.284;2022-10-16T11:30:28;1.35;;;0.90;;
67049;SDS011;53955;52.442;13.284;2022-10-16T11:33:09;1.85;;;0.80;;
67049;SDS011;53955;52.442;13.284;2022-10-16T11:35:48;1.10;;;0.88;;
67049;SDS011;53955;52.442;13.284;2022-10-16T11:38:24;0.90;;;0.70;;
67049;SDS011;53955;52.442;13.284;2022-10-16T11:40:56;1.35;;;0.98;;
67049;SDS011;53955;52.442;13.284;2022-10-16T11:43:28;1.13;;;0.90;;
67049;SDS011;53955;52.442;13.284;2022-10-16T11:46:00;0.82;;;0.57;;
67049;SDS011;53955;52.442;13.284;2022-10-16T11:48:31;1.30;;;0.55;;
67049;SDS011;53955;52.442;13.284;2022-10-16T11:51:06;1.13;;;0.80;;
67049;SDS011;53955;52.442;13.284;2022-10-16T11:53:39;1.88;;;1.00;;
67049;SDS011;53955;52.442;13.284;2022-10-16T11:56:19;1.50;;;0.60;;
67049;SDS011;53955;52.442;13.284;2022-10-16T11:58:50;1.02;;;0.70;;
67049;SDS011;53955;52.442;13.284;2022-10-16T12:01:25;1.35;;;0.77;;
67049;SDS011;53955;52.442;13.284;2022-10-16T12:03:59;0.93;;;0.70;;
67049;SDS011;53955;52.442;13.284;2022-10-16T12:06:33;1.15;;;0.70;;
67049;SDS011;53955;52.442;13.284;2022-10-16T12:09:09;1.40;;;0.80;;
67049;SDS011;53955;52.442;13.284;2022-10-16T12:11:42;1.05;;;0.50;;
67049;SDS011;53955;52.442;13.284;2022-10-16T12:17:02;1.00;;;0.80;;
67049;SDS011;53955;52.442;13.284;2022-10-16T12:19:31;1.38;;;0.70;;
67049;SDS011;53955;52.442;13.284;2022-10-16T12:21:59;1.58;;;0.70;;
67049;SDS011;53955;52.442;13.284;2022-10-16T12:24:31;1.20;;;0.82;;
67049;SDS011;53955;52.442;13.284;2022-10-16T12:27:01;0.65;;;0.57;;
67049;SDS011;53955;52.442;13.284;2022-10-16T12:29:31;2.92;;;0.70;;
67049;SDS011;53955;52.442;13.284;2022-10-16T12:31:59;0.93;;;0.75;;
67049;SDS011;53955;52.442;13.284;2022-10-16T12:34:28;0.90;;;0.60;;
67049;SDS011;53955;52.442;13.284;2022-10-16T12:37:07;1.00;;;0.68;;
67049;SDS011;53955;52.442;13.284;2022-10-16T12:39:37;1.65;;;0.80;;
67049;SDS011;53955;52.442;13.284;2022-10-16T12:42:06;0.70;;;0.50;;
67049;SDS011;53955;52.442;13.284;2022-10-16T12:44:46;1.63;;;0.63;;
67049;SDS011;53955;52.442;13.284;2022-10-16T12:47:19;1.65;;;0.68;;
67049;SDS011;53955;52.442;13.284;2022-10-16T12:49:48;0.77;;;0.50;;
67049;SDS011;53955;52.442;13.284;2022-10-16T12:52:23;2.45;;;0.63;;
67049;SDS011;53955;52.442;13.284;2022-10-16T12:54:55;0.93;;;0.70;;
67049;SDS011;53955;52.442;13.284;2022-10-16T12:57:29;1.48;;;0.88;;
67049;SDS011;53955;52.442;13.284;2022-10-16T13:00:04;1.75;;;0.50;;
67049;SDS011;53955;52.442;13.284;2022-10-16T13:02:41;0.88;;;0.40;;
67049;SDS011;53955;52.442;13.284;2022-10-16T13:05:26;4.00;;;0.80;;
67049;SDS011;53955;52.442;13.284;2022-10-16T13:08:05;1.08;;;0.80;;
67049;SDS011;53955;52.442;13.284;2022-10-16T13:10:47;1.23;;;0.65;;
67049;SDS011;53955;52.442;13.284;2022-10-16T13:13:35;0.60;;;0.45;;
67049;SDS011;53955;52.442;13.284;2022-10-16T13:16:23;2.30;;;0.63;;
67049;SDS011;53955;52.442;13.284;2022-10-16T13:18:59;1.35;;;0.70;;
67049;SDS011;53955;52.442;13.284;2022-10-16T13:21:37;2.65;;;0.60;;
67049;SDS011;53955;52.442;13.284;2022-10-16T13:24:11;1.17;;;0.63;;
67049;SDS011;53955;52.442;13.284;2022-10-16T13:26:48;0.82;;;0.65;;
67049;SDS011;53955;52.442;13.284;2022-10-16T13:29:22;0.70;;;0.70;;
67049;SDS011;53955;52.442;13.284;2022-10-16T13:31:49;0.60;;;0.50;;
67049;SDS011;53955;52.442;13.284;2022-10-16T13:34:17;0.73;;;0.32;;
67049;SDS011;53955;52.442;13.284;2022-10-16T13:36:47;1.63;;;0.57;;
67049;SDS011;53955;52.442;13.284;2022-10-16T13:39:20;1.05;;;0.80;;
67049;SDS011;53955;52.442;13.284;2022-10-16T13:41:57;0.85;;;0.65;;
67049;SDS011;53955;52.442;13.284;2022-10-16T13:44:29;1.00;;;0.75;;
67049;SDS011;53955;52.442;13.284;2022-10-16T13:46:59;0.88;;;0.60;;
67049;SDS011;53955;52.442;13.284;2022-10-16T13:49:26;1.55;;;0.60;;
67049;SDS011;53955;52.442;13.284;2022-10-16T13:51:53;1.38;;;0.65;;
67049;SDS011;53955;52.442;13.284;2022-10-16T13:54:21;1.85;;;1.00;;
67049;SDS011;53955;52.442;13.284;2022-10-16T13:56:48;1.27;;;0.77;;
67049;SDS011;53955;52.442;13.284;2022-10-16T13:59:22;1.33;;;0.80;;
67049;SDS011;53955;52.442;13.284;2022-10-16T14:01:51;1.08;;;0.80;;
67049;SDS011;53955;52.442;13.284;2022-10-16T14:04:20;3.00;;;0.93;;
67049;SDS011;53955;52.442;13.284;2022-10-16T14:06:49;1.35;;;0.82;;
67049;SDS011;53955;52.442;13.284;2022-10-16T14:09:19;1.10;;;0.68;;
67049;SDS011;53955;52.442;13.284;2022-10-16T14:11:49;1.10;;;0.60;;
67049;SDS011;53955;52.442;13.284;2022-10-16T14:14:17;1.10;;;0.70;;
67049;SDS011;53955;52.442;13.284;2022-10-16T14:16:44;0.60;;;0.52;;
67049;SDS011;53955;52.442;13.284;2022-10-16T14:19:15;1.05;;;0.70;;
67049;SDS011;53955;52.442;13.284;2022-10-16T14:21:46;0.90;;;0.50;;
67049;SDS011;53955;52.442;13.284;2022-10-16T14:24:13;1.10;;;0.80;;
67049;SDS011;53955;52.442;13.284;2022-10-16T14:26:51;0.82;;;0.70;;
67049;SDS011;53955;52.442;13.284;2022-10-16T14:29:20;1.55;;;0.80;;
67049;SDS011;53955;52.442;13.284;2022-10-16T14:31:53;0.70;;;0.52;;
67049;SDS011;53955;52.442;13.284;2022-10-16T14:34:32;0.98;;;0.70;;
67049;SDS011;53955;52.442;13.284;2022-10-16T14:37:01;1.95;;;0.93;;
67049;SDS011;53955;52.442;13.284;2022-10-16T14:39:32;1.30;;;0.80;;
67049;SDS011;53955;52.442;13.284;2022-10-16T14:41:59;1.10;;;0.70;;
67049;SDS011;53955;52.442;13.284;2022-10-16T14:44:28;2.95;;;0.75;;
67049;SDS011;53955;52.442;13.284;2022-10-16T14:46:57;0.98;;;0.77;;
67049;SDS011;53955;52.442;13.284;2022-10-16T14:49:24;1.08;;;0.80;;
67049;SDS011;53955;52.442;13.284;2022-10-16T14:51:54;1.25;;;0.70;;
67049;SDS011;53955;52.442;13.284;2022-10-16T14:54:21;1.48;;;0.70;;
67049;SDS011;53955;52.442;13.284;2022-10-16T14:56:48;1.25;;;0.90;;
67049;SDS011;53955;52.442;13.284;2022-10-16T14:59:18;1.23;;;0.50;;
67049;SDS011;53955;52.442;13.284;2022-10-16T15:01:54;1.00;;;0.65;;
67049;SDS011;53955;52.442;13.284;2022-10-16T15:04:21;4.97;;;0.80;;
67049;SDS011;53955;52.442;13.284;2022-10-16T15:06:48;4.05;;;0.70;;
67049;SDS011;53955;52.442;13.284;2022-10-16T15:09:15;2.40;;;1.20;;
67049;SDS011;53955;52.442;13.284;2022-10-16T15:11:42;2.58;;;0.85;;
67049;SDS011;53955;52.442;13.284;2022-10-16T15:14:10;1.17;;;0.50;;
67049;SDS011;53955;52.442;13.284;2022-10-16T15:16:37;1.58;;;0.77;;
67049;SDS011;53955;52.442;13.284;2022-10-16T15:19:04;1.75;;;0.80;;
67049;SDS011;53955;52.442;13.284;2022-10-16T15:21:31;0.95;;;0.80;;
67049;SDS011;53955;52.442;13.284;2022-10-16T15:23:59;1.30;;;0.90;;
67049;SDS011;53955;52.442;13.284;2022-10-16T15:26:28;1.15;;;0.65;;
67049;SDS011;53955;52.442;13.284;2022-10-16T15:28:55;1.17;;;0.80;;
67049;SDS011;53955;52.442;13.284;2022-10-16T15:31:21;1.23;;;0.70;;
67049;SDS011;53955;52.442;13.284;2022-10-16T15:33:49;0.98;;;0.70;;
67049;SDS011;53955;52.442;13.284;2022-10-16T15:36:24;1.05;;;0.80;;
67049;SDS011;53955;52.442;13.284;2022-10-16T15:38:51;1.33;;;0.75;;
67049;SDS011;53955;52.442;13.284;2022-10-16T15:41:18;2.10;;;0.68;;
67049;SDS011;53955;52.442;13.284;2022-10-16T15:43:47;2.65;;;1.00;;
67049;SDS011;53955;52.442;13.284;2022-10-16T15:46:15;2.00;;;0.82;;
67049;SDS011;53955;52.442;13.284;2022-10-16T15:48:44;1.23;;;0.80;;
67049;SDS011;53955;52.442;13.284;2022-10-16T15:51:11;1.33;;;0.80;;
67049;SDS011;53955;52.442;13.284;2022-10-16T15:53:37;2.17;;;0.93;;
67049;SDS011;53955;52.442;13.284;2022-10-16T15:56:04;2.15;;;1.02;;
67049;SDS011;53955;52.442;13.284;2022-10-16T15:58:32;5.72;;;1.17;;
67049;SDS011;53955;52.442;13.284;2022-10-16T16:01:00;2.67;;;1.30;;
67049;SDS011;53955;52.442;13.284;2022-10-16T16:03:28;2.28;;;1.25;;